Time;durP1;ratioP1;P1;durP2;ratioP2;P2;SDS_P1;SDS_P2;PMS_P1;PMS_P2;Temp;Humidity;BMP_temperature;BMP_pressure;BME280_temperature;BME280_humidity;BME280_pressure;Samples;Min_cycle;Max_cycle;Signal;HPM_P1;HPM_P2
2022/05/15 00:01:10;;;;;;;11.30;7.97;;;16.90;81.00;;;;;;5073277;28;20035;-14
2022/05/15 00:03:36;;;;;;;15.40;8.40;;;16.90;81.00;;;;;;5073274;28;20078;-13
2022/05/15 00:06:04;;;;;;;11.43;8.07;;;16.80;81.00;;;;;;5073249;28;20041;-13
2022/05/15 00:08:33;;;;;;;13.70;8.63;;;16.70;81.00;;;;;;5072908;28;20466;-14
2022/05/15 00:11:00;;;;;;;14.25;9.30;;;16.60;81.20;;;;;;5073401;28;20032;-16
2022/05/15 00:13:28;;;;;;;13.98;10.25;;;16.60;81.50;;;;;;5073339;28;20025;-17
2022/05/15 00:15:55;;;;;;;17.13;11.68;;;16.60;81.40;;;;;;5072957;28;20051;-13
2022/05/15 00:18:22;;;;;;;12.85;9.18;;;16.50;81.60;;;;;;5072696;28;20501;-14
2022/05/15 00:20:52;;;;;;;13.25;8.38;;;16.50;81.90;;;;;;5073248;28;20020;-13
2022/05/15 00:23:20;;;;;;;13.10;10.10;;;16.50;81.80;;;;;;5073580;28;20020;-14
2022/05/15 00:25:46;;;;;;;14.45;9.63;;;16.40;81.80;;;;;;5073100;28;20028;-14
2022/05/15 00:28:13;;;;;;;16.33;10.35;;;16.40;81.80;;;;;;5072960;28;20021;-15
2022/05/15 00:30:39;;;;;;;16.23;10.75;;;16.30;81.90;;;;;;5073149;28;20116;-15
2022/05/15 00:33:06;;;;;;;16.83;10.82;;;16.30;82.00;;;;;;5072979;28;20020;-16
2022/05/15 00:35:35;;;;;;;16.38;10.98;;;16.30;82.20;;;;;;5073157;28;20059;-15
2022/05/15 00:38:03;;;;;;;13.85;9.98;;;16.20;82.20;;;;;;5072820;28;20028;-16
2022/05/15 00:40:29;;;;;;;21.08;12.52;;;16.20;82.20;;;;;;5072640;28;20032;-15
2022/05/15 00:42:55;;;;;;;14.80;10.18;;;16.20;82.40;;;;;;5072773;28;20518;-14
2022/05/15 00:45:22;;;;;;;14.02;10.25;;;16.20;82.40;;;;;;5073251;28;20025;-14
2022/05/15 00:47:49;;;;;;;15.13;10.90;;;16.20;82.30;;;;;;5076635;28;20028;-14
2022/05/15 00:50:20;;;;;;;19.17;12.50;;;16.20;82.60;;;;;;5076368;28;20111;-15
2022/05/15 00:52:50;;;;;;;13.75;10.25;;;16.20;82.60;;;;;;5077192;28;20024;-15
2022/05/15 00:55:24;;;;;;;15.25;10.65;;;16.20;82.70;;;;;;5076920;28;20465;-15
2022/05/15 00:57:55;;;;;;;12.30;8.55;;;16.20;82.80;;;;;;5076646;28;20025;-14
2022/05/15 01:00:27;;;;;;;16.05;10.23;;;16.20;82.80;;;;;;5076831;28;20033;-13
2022/05/15 01:03:10;;;;;;;14.82;10.18;;;16.10;82.60;;;;;;5076641;28;20020;-15
2022/05/15 01:05:40;;;;;;;15.70;11.87;;;16.00;82.60;;;;;;5076771;28;20063;-15
2022/05/15 01:08:07;;;;;;;16.58;11.07;;;16.00;82.80;;;;;;5076575;28;20532;-15
2022/05/15 01:10:39;;;;;;;16.63;10.52;;;16.00;83.10;;;;;;5076069;28;20062;-14
2022/05/15 01:13:05;;;;;;;13.55;10.00;;;15.90;83.00;;;;;;5076677;28;20032;-14
2022/05/15 01:15:32;;;;;;;12.10;8.73;;;15.90;83.00;;;;;;5075990;28;20029;-15
2022/05/15 01:17:58;;;;;;;14.05;9.80;;;15.90;82.90;;;;;;5074902;28;20082;-15
2022/05/15 01:20:31;;;;;;;15.25;10.43;;;15.90;83.00;;;;;;5075882;28;20116;-14
2022/05/15 01:22:58;;;;;;;18.95;12.75;;;15.90;83.00;;;;;;5076067;28;20483;-15
2022/05/15 01:25:32;;;;;;;18.73;11.23;;;15.90;83.20;;;;;;5075062;28;20086;-14
2022/05/15 01:28:02;;;;;;;16.45;11.45;;;15.90;83.10;;;;;;5076147;28;20023;-14
2022/05/15 01:30:29;;;;;;;13.93;10.20;;;15.90;83.20;;;;;;5075626;28;20472;-16
2022/05/15 01:32:55;;;;;;;16.73;12.60;;;15.80;83.20;;;;;;5075931;28;20403;-14
2022/05/15 01:35:21;;;;;;;19.77;11.57;;;15.80;83.40;;;;;;5075806;28;20058;-16
2022/05/15 01:37:47;;;;;;;15.50;10.73;;;15.80;83.50;;;;;;5075811;28;20024;-16
2022/05/15 01:40:14;;;;;;;17.83;11.38;;;15.70;83.50;;;;;;5075878;28;20067;-16
2022/05/15 01:42:40;;;;;;;13.73;10.20;;;15.70;83.50;;;;;;5076242;28;20462;-13
2022/05/15 01:45:08;;;;;;;15.68;11.07;;;15.70;83.90;;;;;;5075672;28;20111;-14
2022/05/15 01:47:34;;;;;;;11.63;8.32;;;15.70;83.80;;;;;;5075834;28;20032;-16
2022/05/15 01:50:01;;;;;;;15.80;10.60;;;15.70;83.60;;;;;;5075697;28;20028;-16
2022/05/15 01:52:28;;;;;;;14.88;10.40;;;15.80;83.60;;;;;;5075404;28;20032;-14
2022/05/15 01:54:55;;;;;;;18.85;12.98;;;15.80;83.60;;;;;;5075704;28;20032;-16
2022/05/15 01:57:21;;;;;;;16.30;9.30;;;15.70;83.70;;;;;;5074776;28;20511;-14
2022/05/15 01:59:48;;;;;;;17.58;11.60;;;15.70;83.70;;;;;;5075350;28;20383;-14
2022/05/15 02:02:15;;;;;;;24.88;15.05;;;15.70;83.70;;;;;;5075174;28;20024;-16
2022/05/15 02:04:41;;;;;;;21.90;15.25;;;15.60;83.70;;;;;;5075572;28;20044;-16
2022/05/15 02:07:07;;;;;;;18.35;11.98;;;15.50;83.70;;;;;;5075310;28;20028;-15
2022/05/15 02:09:34;;;;;;;18.02;10.82;;;15.50;84.10;;;;;;5075449;28;20024;-16
2022/05/15 02:12:00;;;;;;;17.63;11.25;;;15.50;83.90;;;;;;5075447;28;20048;-15
2022/05/15 02:14:25;;;;;;;19.80;11.95;;;15.40;83.80;;;;;;5074881;28;20032;-16
2022/05/15 02:16:51;;;;;;;17.95;12.65;;;15.40;83.90;;;;;;5074868;28;20052;-16
2022/05/15 02:19:18;;;;;;;16.20;11.05;;;15.40;84.10;;;;;;5075225;28;20043;-15
2022/05/15 02:21:45;;;;;;;16.63;11.35;;;15.30;84.00;;;;;;5074900;28;20111;-21
2022/05/15 02:24:12;;;;;;;24.58;14.45;;;15.40;84.10;;;;;;5074885;28;20058;-15
2022/05/15 02:26:38;;;;;;;20.73;15.23;;;15.30;84.20;;;;;;5074648;28;20551;-15
2022/05/15 02:29:05;;;;;;;21.38;14.45;;;15.30;84.10;;;;;;5075122;28;20021;-15
2022/05/15 02:31:31;;;;;;;16.75;12.35;;;15.30;84.20;;;;;;5075073;28;20025;-16
2022/05/15 02:33:58;;;;;;;16.55;11.65;;;15.20;84.30;;;;;;5074737;28;20523;-16
2022/05/15 02:36:25;;;;;;;19.17;12.45;;;15.20;84.50;;;;;;5074573;28;20115;-15
2022/05/15 02:38:51;;;;;;;17.25;10.90;;;15.20;84.40;;;;;;5074506;28;20028;-15
2022/05/15 02:41:17;;;;;;;19.05;12.68;;;15.20;84.30;;;;;;5074793;28;20024;-16
2022/05/15 02:43:43;;;;;;;20.67;12.77;;;15.20;84.70;;;;;;5074585;28;20070;-16
2022/05/15 02:46:09;;;;;;;17.25;11.68;;;15.10;84.40;;;;;;5074637;28;20016;-15
2022/05/15 02:51:19;;;;;;;17.58;11.57;;;15.00;84.60;;;;;;5074331;28;20056;-15
2022/05/15 02:53:46;;;;;;;16.90;11.90;;;15.10;84.30;;;;;;5074478;28;20042;-16
2022/05/15 02:56:19;;;;;;;14.98;10.52;;;15.10;84.40;;;;;;5074401;28;20021;-15
2022/05/15 02:58:45;;;;;;;20.52;12.25;;;15.10;84.40;;;;;;5074343;28;20108;-14
2022/05/15 03:01:12;;;;;;;18.65;12.40;;;15.00;84.30;;;;;;5074235;28;20103;-17
2022/05/15 03:03:38;;;;;;;14.77;11.15;;;15.10;84.30;;;;;;5074095;28;20027;-15
2022/05/15 03:06:05;;;;;;;15.25;10.45;;;15.10;84.40;;;;;;5074320;28;20028;-15
2022/05/15 03:08:33;;;;;;;19.52;12.73;;;15.10;84.50;;;;;;5072279;28;20029;-14
2022/05/15 03:10:59;;;;;;;15.65;11.30;;;15.10;84.60;;;;;;5073990;28;20107;-15
2022/05/15 03:13:26;;;;;;;13.95;9.63;;;15.10;84.40;;;;;;5073951;28;20115;-17
2022/05/15 03:15:52;;;;;;;17.38;11.65;;;15.10;84.40;;;;;;5073852;28;20048;-16
2022/05/15 03:18:18;;;;;;;18.75;13.18;;;15.00;84.60;;;;;;5073693;28;20021;-14
2022/05/15 03:20:44;;;;;;;19.80;13.52;;;15.00;84.80;;;;;;5073805;28;20107;-16
2022/05/15 03:23:11;;;;;;;19.02;13.65;;;15.00;84.80;;;;;;5074007;28;20124;-14
2022/05/15 03:25:37;;;;;;;17.92;10.60;;;15.00;84.80;;;;;;5073732;28;20032;-16
2022/05/15 03:28:09;;;;;;;21.60;14.60;;;15.00;84.60;;;;;;5073684;28;20107;-17
2022/05/15 03:30:39;;;;;;;20.70;14.82;;;15.00;84.60;;;;;;5073467;28;20495;-17
2022/05/15 03:33:05;;;;;;;19.15;13.18;;;15.00;84.70;;;;;;5073442;28;20040;-16
2022/05/15 03:35:32;;;;;;;23.02;14.45;;;14.90;84.70;;;;;;5072361;28;20025;-15
2022/05/15 03:37:58;;;;;;;23.13;12.95;;;14.90;84.80;;;;;;5073794;28;20115;-16
2022/05/15 03:40:24;;;;;;;16.42;11.95;;;14.90;84.80;;;;;;5073347;28;20060;-15
2022/05/15 03:42:50;;;;;;;23.63;15.48;;;14.90;84.90;;;;;;5073743;28;20024;-16
2022/05/15 03:45:16;;;;;;;28.75;18.52;;;15.00;85.00;;;;;;5072097;28;20503;-16
2022/05/15 03:47:51;;;;;;;18.17;12.52;;;14.90;85.00;;;;;;5073517;28;20040;-16
2022/05/15 03:50:18;;;;;;;16.10;11.57;;;15.00;85.30;;;;;;5073214;28;20036;-16
2022/05/15 03:52:44;;;;;;;17.05;12.00;;;15.00;85.20;;;;;;5073838;28;20025;-16
2022/05/15 03:55:11;;;;;;;18.08;12.10;;;14.90;85.20;;;;;;5073694;28;20025;-15
2022/05/15 03:57:38;;;;;;;22.02;13.15;;;14.90;85.20;;;;;;5073219;28;20077;-14
2022/05/15 04:00:07;;;;;;;24.20;16.08;;;14.90;85.00;;;;;;5073408;28;20100;-14
2022/05/15 04:02:33;;;;;;;18.20;10.38;;;14.90;85.10;;;;;;5072862;28;20029;-16
2022/05/15 04:04:59;;;;;;;23.17;15.93;;;14.90;85.20;;;;;;5073190;28;20035;-15
2022/05/15 04:07:25;;;;;;;16.90;12.38;;;14.90;85.10;;;;;;5073456;28;20387;-16
2022/05/15 04:09:51;;;;;;;16.52;11.38;;;14.90;85.20;;;;;;5071840;28;20472;-16
2022/05/15 04:12:18;;;;;;;19.60;12.23;;;15.00;85.10;;;;;;5072978;28;20103;-15
2022/05/15 04:14:45;;;;;;;16.08;11.02;;;15.10;85.20;;;;;;5073032;28;20419;-14
2022/05/15 04:17:11;;;;;;;15.23;10.02;;;15.10;85.40;;;;;;5072818;28;20064;-16
2022/05/15 04:19:37;;;;;;;22.77;16.67;;;15.20;85.10;;;;;;5073020;28;20029;-15
2022/05/15 04:22:05;;;;;;;26.00;16.50;;;15.20;85.00;;;;;;5072678;28;20029;-14
2022/05/15 04:24:33;;;;;;;26.55;16.55;;;15.30;85.20;;;;;;5072858;28;20388;-14
2022/05/15 04:26:59;;;;;;;21.75;12.25;;;15.30;85.10;;;;;;5072962;28;20029;-16
2022/05/15 04:29:25;;;;;;;20.17;13.30;;;15.40;85.00;;;;;;5072839;28;20484;-14
2022/05/15 04:32:01;;;;;;;24.90;16.63;;;15.40;84.90;;;;;;5073197;28;20033;-14
2022/05/15 04:34:28;;;;;;;22.17;15.52;;;15.40;84.90;;;;;;5072788;28;20021;-14
2022/05/15 04:36:55;;;;;;;24.27;14.50;;;15.50;84.70;;;;;;5072857;28;20115;-14
2022/05/15 04:39:22;;;;;;;19.40;12.35;;;15.60;84.80;;;;;;5073128;28;20101;-14
2022/05/15 04:41:48;;;;;;;19.70;14.20;;;15.70;84.70;;;;;;5073142;28;20028;-14
2022/05/15 04:44:14;;;;;;;20.02;14.07;;;15.80;84.60;;;;;;5072554;28;20051;-15
2022/05/15 04:46:41;;;;;;;19.63;13.45;;;15.90;84.60;;;;;;5072732;28;20060;-13
2022/05/15 04:49:08;;;;;;;19.38;14.02;;;16.00;84.40;;;;;;5072550;28;20025;-14
2022/05/15 04:51:33;;;;;;;16.40;11.52;;;16.10;84.30;;;;;;5072697;28;20028;-14
2022/05/15 04:53:59;;;;;;;17.50;12.07;;;16.20;84.20;;;;;;5072939;28;20154;-14
2022/05/15 04:56:25;;;;;;;17.20;12.15;;;16.40;83.90;;;;;;5071602;28;20025;-14
2022/05/15 04:58:51;;;;;;;17.15;11.45;;;16.50;83.80;;;;;;5071465;28;20102;-15
2022/05/15 05:01:24;;;;;;;17.35;11.88;;;16.60;83.60;;;;;;5072632;28;20035;-16
2022/05/15 05:03:51;;;;;;;17.20;11.38;;;16.70;84.00;;;;;;5072591;28;20033;-15
2022/05/15 05:06:17;;;;;;;14.45;10.70;;;16.90;83.60;;;;;;5072345;28;20039;-15
2022/05/15 05:08:43;;;;;;;17.63;12.57;;;16.90;83.10;;;;;;5072468;28;20032;-14
2022/05/15 05:11:09;;;;;;;16.30;12.05;;;17.10;83.00;;;;;;5072774;28;20036;-15
2022/05/15 05:13:34;;;;;;;17.67;13.02;;;17.20;82.90;;;;;;5072521;28;20031;-14
2022/05/15 05:16:00;;;;;;;15.65;10.45;;;17.30;82.80;;;;;;5072554;28;20053;-15
2022/05/15 05:18:26;;;;;;;16.58;11.20;;;17.40;82.70;;;;;;5072111;28;20107;-14
2022/05/15 05:20:52;;;;;;;16.08;10.75;;;17.40;82.30;;;;;;5072742;28;20112;-15
2022/05/15 05:23:18;;;;;;;19.88;12.60;;;17.60;82.20;;;;;;5072392;28;20499;-14
2022/05/15 05:25:44;;;;;;;20.67;14.13;;;17.70;82.20;;;;;;5071124;28;20032;-15
2022/05/15 05:28:10;;;;;;;15.48;10.57;;;17.90;82.00;;;;;;5072295;28;20029;-15
2022/05/15 05:30:39;;;;;;;17.23;13.52;;;17.90;81.90;;;;;;5071235;28;20445;-13
2022/05/15 05:33:06;;;;;;;16.20;12.57;;;18.00;81.70;;;;;;5073825;28;20031;-14
2022/05/15 05:35:33;;;;;;;14.35;10.45;;;18.20;81.60;;;;;;5076109;28;20430;-14
2022/05/15 05:37:59;;;;;;;14.10;10.20;;;18.30;81.40;;;;;;5076172;28;20059;-14
2022/05/15 05:40:25;;;;;;;18.42;13.32;;;18.40;81.10;;;;;;5075618;28;20024;-15
2022/05/15 05:42:51;;;;;;;16.98;12.40;;;18.50;80.80;;;;;;5076015;28;20028;-13
2022/05/15 05:45:17;;;;;;;18.45;12.93;;;18.60;80.50;;;;;;5075668;28;20025;-14
2022/05/15 05:47:47;;;;;;;19.23;13.32;;;18.60;80.30;;;;;;5075547;28;20039;-14
2022/05/15 05:50:15;;;;;;;17.63;12.60;;;18.80;80.00;;;;;;5075681;28;20024;-14
2022/05/15 05:52:41;;;;;;;14.73;9.55;;;18.80;79.80;;;;;;5075556;28;20036;-13
2022/05/15 05:55:11;;;;;;;15.40;11.18;;;18.90;79.30;;;;;;5075491;28;20032;-13
2022/05/15 05:57:39;;;;;;;12.45;9.45;;;19.00;79.20;;;;;;5075801;28;20021;-14
2022/05/15 06:00:07;;;;;;;13.73;10.05;;;19.10;79.10;;;;;;5075418;28;20526;-14
2022/05/15 06:02:33;;;;;;;15.68;10.05;;;19.20;79.00;;;;;;5075362;28;20024;-16
2022/05/15 06:04:59;;;;;;;13.95;10.13;;;19.40;79.40;;;;;;5076163;28;20365;-14
2022/05/15 06:07:27;;;;;;;15.50;9.65;;;19.50;79.10;;;;;;5075592;28;20392;-14
2022/05/15 06:09:53;;;;;;;13.70;8.95;;;19.70;78.80;;;;;;5075086;28;20032;-14
2022/05/15 06:12:22;;;;;;;13.98;9.52;;;19.80;78.20;;;;;;5075214;28;20032;-14
2022/05/15 06:14:49;;;;;;;13.32;9.75;;;19.90;78.00;;;;;;5075131;28;20103;-13
2022/05/15 06:17:23;;;;;;;11.57;8.63;;;20.00;77.80;;;;;;5074742;28;20036;-14
2022/05/15 06:19:50;;;;;;;11.20;8.48;;;20.20;77.50;;;;;;5075438;28;20036;-14
2022/05/15 06:22:16;;;;;;;13.98;10.15;;;20.30;77.30;;;;;;5074723;28;20025;-14
2022/05/15 06:24:42;;;;;;;13.00;10.70;;;20.40;76.70;;;;;;5074941;28;20103;-14
2022/05/15 06:27:09;;;;;;;11.30;8.57;;;20.50;76.20;;;;;;5074869;28;20028;-14
2022/05/15 06:29:38;;;;;;;11.55;8.13;;;20.60;76.50;;;;;;5074615;28;20113;-14
2022/05/15 06:32:05;;;;;;;12.70;8.90;;;20.80;76.60;;;;;;5074767;28;20104;-15
2022/05/15 06:34:30;;;;;;;11.02;8.45;;;21.00;76.30;;;;;;5074588;28;20029;-15
2022/05/15 06:36:57;;;;;;;13.27;9.13;;;21.30;76.10;;;;;;5074651;28;20020;-12
2022/05/15 06:39:22;;;;;;;10.30;7.93;;;21.50;75.80;;;;;;5074827;28;20013;-13
2022/05/15 06:41:50;;;;;;;12.63;9.45;;;21.70;74.80;;;;;;5073583;28;20028;-13
2022/05/15 06:44:19;;;;;;;10.55;7.82;;;21.90;74.90;;;;;;5074221;28;20032;-14
2022/05/15 06:46:46;;;;;;;14.48;9.48;;;22.10;74.40;;;;;;5075083;28;20017;-14
2022/05/15 06:49:13;;;;;;;11.35;7.68;;;22.30;74.00;;;;;;5074375;28;20032;-14
2022/05/15 06:51:39;;;;;;;12.07;8.52;;;22.40;73.40;;;;;;5074466;28;20043;-14
2022/05/15 06:54:05;;;;;;;11.23;8.85;;;22.60;73.20;;;;;;5074701;28;20028;-14
2022/05/15 06:59:16;;;;;;;12.90;8.43;;;22.90;70.80;;;;;;5074763;28;20028;-13
2022/05/15 07:01:42;;;;;;;10.15;7.97;;;23.10;70.80;;;;;;5074223;28;20029;-14
2022/05/15 07:04:08;;;;;;;10.68;7.68;;;23.20;70.60;;;;;;5074294;28;20032;-13
2022/05/15 07:06:35;;;;;;;11.00;7.85;;;23.50;70.20;;;;;;5074198;28;20056;-13
2022/05/15 07:09:01;;;;;;;11.85;7.80;;;23.80;68.60;;;;;;5073972;28;20365;-13
2022/05/15 07:11:27;;;;;;;15.10;10.68;;;24.00;68.30;;;;;;5074013;28;20028;-13
2022/05/15 07:13:53;;;;;;;16.10;12.52;;;24.20;66.70;;;;;;5074220;28;20036;-14
2022/05/15 07:16:19;;;;;;;14.20;8.95;;;24.40;66.30;;;;;;5073534;28;20047;-13
2022/05/15 07:18:45;;;;;;;12.57;9.35;;;24.50;65.70;;;;;;5073946;28;20024;-13
2022/05/15 07:21:12;;;;;;;14.35;10.00;;;24.60;65.10;;;;;;5074141;28;20028;-14
2022/05/15 07:23:38;;;;;;;10.13;8.18;;;24.70;64.90;;;;;;5073756;28;20555;-14
2022/05/15 07:26:04;;;;;;;10.10;7.63;;;24.70;64.40;;;;;;5074088;28;20107;-14
2022/05/15 07:28:30;;;;;;;10.13;8.02;;;24.90;65.10;;;;;;5073409;28;20029;-13
2022/05/15 07:30:57;;;;;;;14.80;8.73;;;25.20;64.50;;;;;;5073666;28;20506;-14
2022/05/15 07:33:26;;;;;;;9.77;8.05;;;25.50;64.30;;;;;;5141649;22;20396;-15
2022/05/15 07:35:55;;;;;;;9.18;6.50;;;25.70;63.10;;;;;;5053975;28;20024;-12
2022/05/15 07:38:21;;;;;;;12.50;8.32;;;25.90;62.60;;;;;;5053357;28;20032;-14
2022/05/15 07:40:48;;;;;;;11.65;8.00;;;26.10;61.80;;;;;;5053525;28;20017;-14
2022/05/15 07:43:14;;;;;;;15.45;12.73;;;26.30;61.60;;;;;;5053770;28;20432;-14
2022/05/15 07:45:40;;;;;;;14.23;9.77;;;26.30;60.80;;;;;;5053719;28;20475;-12
2022/05/15 07:48:07;;;;;;;12.48;8.98;;;26.20;61.40;;;;;;5053270;28;20541;-12
2022/05/15 07:50:34;;;;;;;10.88;7.63;;;26.20;61.30;;;;;;5053239;28;20021;-14
2022/05/15 07:53:00;;;;;;;10.02;6.85;;;26.30;60.90;;;;;;5035587;28;20483;-15
2022/05/15 07:55:26;;;;;;;11.45;7.57;;;26.50;60.30;;;;;;5053064;28;20028;-14
2022/05/15 07:57:52;;;;;;;9.45;7.93;;;26.90;59.30;;;;;;5053522;28;20109;-14
2022/05/15 08:00:19;;;;;;;10.90;8.43;;;27.10;58.00;;;;;;5053094;28;20556;-15
2022/05/15 08:02:45;;;;;;;6.60;5.30;;;27.20;56.80;;;;;;5053445;28;20033;-15
2022/05/15 08:08:00;;;;;;;7.80;5.63;;;27.00;55.90;;;;;;5053258;28;20036;-14
2022/05/15 08:10:29;;;;;;;9.77;5.60;;;27.40;54.70;;;;;;5052949;28;20029;-15
2022/05/15 08:12:55;;;;;;;5.32;4.40;;;27.70;54.20;;;;;;5053373;28;20037;-14
2022/05/15 08:15:21;;;;;;;7.78;5.03;;;28.20;52.00;;;;;;5053372;28;20066;-14
2022/05/15 08:17:47;;;;;;;6.93;4.95;;;28.70;51.60;;;;;;5052900;28;20108;-16
2022/05/15 08:25:44;;;;;;;4.72;4.22;;;29.80;48.40;;;;;;5053465;28;20117;-14
2022/05/15 08:28:11;;;;;;;6.88;4.78;;;29.90;48.50;;;;;;5053075;28;20049;-15
2022/05/15 08:30:37;;;;;;;6.28;5.07;;;30.10;48.20;;;;;;5052641;28;20031;-14
2022/05/15 08:33:05;;;;;;;5.20;4.35;;;30.40;47.20;;;;;;5052403;28;20076;-14
2022/05/15 08:35:31;;;;;;;8.00;5.20;;;30.40;47.10;;;;;;5053043;28;20029;-15
2022/05/15 08:37:57;;;;;;;5.40;4.57;;;30.40;46.50;;;;;;5053146;28;20025;-14
2022/05/15 08:41:02;;;;;;;7.88;4.20;;;30.10;46.90;;;;;;5052597;28;20026;-14
2022/05/15 08:43:44;;;;;;;6.03;4.68;;;29.90;48.10;;;;;;4994631;28;20038;-14
2022/05/15 08:46:31;;;;;;;7.13;4.97;;;30.00;48.20;;;;;;5011249;28;20026;-14
2022/05/15 08:49:08;;;;;;;4.93;3.85;;;30.00;47.40;;;;;;5011057;28;20034;-14
2022/05/15 08:51:35;;;;;;;4.43;3.97;;;30.10;48.20;;;;;;5011059;28;20029;-16
2022/05/15 08:54:05;;;;;;;7.85;4.43;;;30.40;45.50;;;;;;5010967;28;20116;-14
2022/05/15 08:56:39;;;;;;;5.28;4.43;;;30.80;44.90;;;;;;5010853;28;20030;-15
2022/05/15 08:59:13;;;;;;;5.18;4.35;;;31.10;44.30;;;;;;5011033;28;20038;-14
2022/05/15 09:01:39;;;;;;;5.88;4.28;;;31.40;43.70;;;;;;5010895;28;20456;-14
2022/05/15 09:04:05;;;;;;;6.57;4.20;;;31.50;44.00;;;;;;5010885;28;20030;-14
2022/05/15 09:07:17;;;;;;;5.80;4.25;;;31.60;42.90;;;;;;4994252;28;20087;-15
2022/05/15 09:09:57;;;;;;;6.13;4.30;;;31.80;41.90;;;;;;4991335;28;20053;-13
2022/05/15 09:12:26;;;;;;;7.80;5.10;;;31.90;42.20;;;;;;5014305;28;20076;-14
2022/05/15 09:15:16;;;;;;;4.65;3.88;;;32.00;42.30;;;;;;5014526;28;20113;-14
2022/05/15 09:18:00;;;;;;;5.35;4.40;;;31.90;42.40;;;;;;5014463;28;20026;-14
2022/05/15 09:20:45;;;;;;;5.53;4.25;;;31.80;42.00;;;;;;5045694;28;20120;-14
2022/05/15 09:23:46;;;;;;;5.07;4.10;;;31.70;42.80;;;;;;5056618;28;20025;-14
2022/05/15 09:26:17;;;;;;;5.05;4.25;;;32.00;42.10;;;;;;5056283;28;20067;-14
2022/05/15 09:28:52;;;;;;;4.93;4.00;;;32.30;41.90;;;;;;5056728;28;20033;-14
2022/05/15 09:31:28;;;;;;;5.65;4.40;;;32.60;41.90;;;;;;5056458;28;20020;-14
2022/05/15 09:34:04;;;;;;;5.07;4.50;;;32.90;40.40;;;;;;5055904;28;20099;-14
2022/05/15 09:36:36;;;;;;;7.00;4.75;;;32.90;39.90;;;;;;5055704;28;20391;-14
2022/05/15 09:39:18;;;;;;;4.57;4.03;;;32.70;40.30;;;;;;5055834;28;20086;-14
2022/05/15 09:44:42;;;;;;;6.93;4.63;;;32.20;42.50;;;;;;5056140;28;20032;-14
2022/05/15 09:47:11;;;;;;;5.82;4.60;;;32.20;42.30;;;;;;5055923;28;20021;-14
2022/05/15 09:49:38;;;;;;;7.15;4.70;;;31.90;42.30;;;;;;5055636;28;20047;-14
2022/05/15 09:52:11;;;;;;;7.93;5.15;;;31.60;43.20;;;;;;5055888;28;20036;-14
2022/05/15 09:54:38;;;;;;;7.47;5.35;;;31.60;42.80;;;;;;5055448;28;20063;-15
2022/05/15 09:57:16;;;;;;;6.28;4.60;;;31.50;43.00;;;;;;5056167;28;20078;-14
2022/05/15 09:59:50;;;;;;;4.50;4.10;;;31.60;42.90;;;;;;5055773;28;20025;-14
2022/05/15 10:02:22;;;;;;;6.45;4.95;;;31.70;42.80;;;;;;5055324;28;20033;-14
2022/05/15 10:04:52;;;;;;;7.45;5.35;;;32.30;42.10;;;;;;5055620;28;20434;-15
2022/05/15 10:07:32;;;;;;;9.10;5.30;;;32.60;42.00;;;;;;5055631;28;20029;-14
2022/05/15 10:10:16;;;;;;;6.28;5.30;;;33.20;40.30;;;;;;5055414;28;20514;-15
2022/05/15 10:12:45;;;;;;;6.72;4.70;;;33.40;38.80;;;;;;5055268;28;20078;-14
2022/05/15 10:15:13;;;;;;;6.93;5.20;;;33.30;40.50;;;;;;5055433;28;20025;-15
2022/05/15 10:17:49;;;;;;;6.32;5.05;;;33.30;40.50;;;;;;5055041;28;20107;-14
2022/05/15 10:20:23;;;;;;;8.88;6.13;;;33.30;40.50;;;;;;5054819;28;20033;-14
2022/05/15 10:22:55;;;;;;;7.85;5.68;;;33.40;40.20;;;;;;5038005;28;20032;-14
2022/05/15 10:25:40;;;;;;;;;;;33.30;40.60;;;;;;5055905;28;20120;-14
2022/05/15 10:28:27;;;;;;;8.75;5.40;;;33.20;41.30;;;;;;5055253;28;19908;-14
2022/05/15 10:31:10;;;;;;;6.30;4.90;;;33.40;41.10;;;;;;5055186;28;20037;-14
2022/05/15 10:33:43;;;;;;;9.02;5.22;;;33.60;40.40;;;;;;5054737;28;20098;-15
2022/05/15 10:36:32;;;;;;;10.55;6.30;;;33.90;40.30;;;;;;5037048;28;20032;-15
2022/05/15 10:39:28;;;;;;;8.02;5.85;;;34.10;38.80;;;;;;5034097;28;20038;-15
2022/05/15 10:42:28;;;;;;;8.23;5.72;;;33.80;39.00;;;;;;5054694;28;20029;-14
2022/05/15 10:44:59;;;;;;;7.85;5.68;;;33.50;39.60;;;;;;5036757;28;20383;-14
2022/05/15 10:48:00;;;;;;;9.25;5.75;;;33.60;39.70;;;;;;5055224;28;20052;-14
2022/05/15 10:51:22;;;;;;;6.28;5.00;;;33.40;39.30;;;;;;5054551;28;20040;-14
2022/05/15 11:00:10;;;;;;;8.85;5.90;;;34.80;38.60;;;;;;5054901;28;20399;-15
2022/05/15 11:03:14;;;;;;;10.00;6.05;;;35.60;37.90;;;;;;5054020;28;20032;-14
2022/05/15 11:05:57;;;;;;;8.70;5.80;;;36.40;35.50;;;;;;5036403;28;20052;-14
2022/05/15 11:08:44;;;;;;;6.97;5.03;;;36.90;35.40;;;;;;5053925;28;20086;-14
2022/05/15 11:11:24;;;;;;;10.48;5.90;;;37.20;34.40;;;;;;5054532;28;20553;-14
2022/05/15 11:14:03;;;;;;;8.15;6.07;;;37.30;34.30;;;;;;5054424;28;20025;-13
2022/05/15 11:16:52;;;;;;;10.57;6.60;;;37.30;34.40;;;;;;5054201;28;20029;-14
2022/05/15 11:19:33;;;;;;;8.85;5.78;;;36.80;35.20;;;;;;5054393;28;20503;-14
2022/05/15 11:22:20;;;;;;;7.28;5.15;;;36.40;36.00;;;;;;5054478;28;20044;-13
2022/05/15 11:25:23;;;;;;;7.95;5.53;;;36.30;36.80;;;;;;5054200;28;20025;-14
2022/05/15 11:27:55;;;;;;;5.53;4.95;;;36.90;35.90;;;;;;5053814;28;20116;-14
2022/05/15 11:30:26;;;;;;;10.25;5.55;;;37.20;35.10;;;;;;5053095;28;20395;-14
2022/05/15 11:32:54;;;;;;;8.23;5.38;;;37.00;35.70;;;;;;5053409;28;20076;-13
2022/05/15 11:35:23;;;;;;;7.65;4.90;;;37.10;36.00;;;;;;5054125;28;20498;-14
2022/05/15 11:38:08;;;;;;;7.20;5.50;;;37.20;35.80;;;;;;5053609;28;20389;-14
2022/05/15 11:40:50;;;;;;;10.90;5.93;;;37.50;34.50;;;;;;5053373;28;20035;-13
2022/05/15 11:43:30;;;;;;;8.43;5.70;;;37.80;34.10;;;;;;5053859;28;20036;-13
2022/05/15 11:46:04;;;;;;;6.93;5.50;;;38.00;32.70;;;;;;5053709;28;20029;-13
2022/05/15 11:48:33;;;;;;;7.90;5.70;;;37.80;33.30;;;;;;5053300;28;20032;-13
2022/05/15 11:51:06;;;;;;;7.45;5.82;;;37.70;33.40;;;;;;5053694;28;20029;-14
2022/05/15 11:53:46;;;;;;;7.00;4.80;;;37.90;33.60;;;;;;5053820;28;20028;-13
2022/05/15 11:56:40;;;;;;;9.45;5.82;;;38.00;33.70;;;;;;5053487;28;20021;-14
2022/05/15 11:59:24;;;;;;;8.13;5.57;;;38.00;32.40;;;;;;5053561;28;20372;-14
2022/05/15 12:02:23;;;;;;;5.82;5.00;;;38.00;33.10;;;;;;5053175;28;20021;-14
2022/05/15 12:04:51;;;;;;;8.65;5.00;;;38.40;33.20;;;;;;5053033;28;20033;-13
2022/05/15 12:07:31;;;;;;;7.35;4.93;;;38.80;33.30;;;;;;5053239;28;20052;-14
2022/05/15 12:09:57;;;;;;;10.02;5.70;;;39.30;32.30;;;;;;5053447;28;20037;-14
2022/05/15 12:12:32;;;;;;;6.53;5.25;;;38.90;33.00;;;;;;5052896;28;20024;-14
2022/05/15 12:15:06;;;;;;;7.65;5.43;;;39.20;32.00;;;;;;5053730;28;20029;-14
2022/05/15 12:17:34;;;;;;;10.15;6.18;;;39.40;31.30;;;;;;5053312;28;20541;-14
2022/05/15 12:20:10;;;;;;;6.35;5.60;;;39.10;31.40;;;;;;5053276;28;20017;-15
2022/05/15 12:22:41;;;;;;;6.88;5.80;;;38.40;32.10;;;;;;5052940;28;20035;-14
2022/05/15 12:25:13;;;;;;;10.05;5.88;;;37.90;32.90;;;;;;5053273;28;20455;-14
2022/05/15 12:28:50;;;;;;;9.00;5.55;;;37.80;32.80;;;;;;5052975;28;20387;-14
2022/05/15 12:30:42;;;;;;;;;;;37.80;31.50;;;;;;5053351;28;20102;-14
2022/05/15 12:33:11;;;;;;;7.75;6.00;;;37.60;32.00;;;;;;5052602;28;19944;-14
2022/05/15 12:35:45;;;;;;;10.23;6.57;;;37.50;33.30;;;;;;5052828;28;20037;-14
2022/05/15 12:38:18;;;;;;;8.48;5.18;;;37.40;32.90;;;;;;5053194;28;20033;-13
2022/05/15 12:41:06;;;;;;;7.72;6.07;;;37.20;33.80;;;;;;5052899;28;20081;-14
2022/05/15 12:43:40;;;;;;;7.65;5.38;;;37.50;33.60;;;;;;5056884;28;20120;-14
2022/05/15 12:46:09;;;;;;;7.22;5.80;;;38.00;32.60;;;;;;5056918;28;20075;-13
2022/05/15 12:48:37;;;;;;;7.60;5.32;;;38.30;32.30;;;;;;5039381;28;20431;-14
2022/05/15 12:51:09;;;;;;;7.95;5.80;;;38.50;32.30;;;;;;5056657;28;20029;-14
2022/05/15 12:53:37;;;;;;;8.95;6.20;;;38.80;32.20;;;;;;5056997;28;20365;-13
2022/05/15 12:56:09;;;;;;;7.45;5.55;;;39.00;32.50;;;;;;5056932;28;20078;-13
2022/05/15 12:58:36;;;;;;;12.27;6.00;;;39.00;31.70;;;;;;5038554;28;20409;-13
2022/05/15 13:01:03;;;;;;;9.68;6.10;;;39.00;32.10;;;;;;5056846;28;20021;-14
2022/05/15 13:03:31;;;;;;;6.93;5.90;;;39.20;31.80;;;;;;5056425;28;20029;-14
2022/05/15 13:06:00;;;;;;;8.75;5.25;;;39.10;32.10;;;;;;5056307;28;20056;-14
2022/05/15 13:08:46;;;;;;;7.80;5.57;;;38.90;31.40;;;;;;5056258;28;20123;-14
2022/05/15 13:11:36;;;;;;;7.75;5.20;;;38.70;32.00;;;;;;5056795;28;20029;-15
2022/05/15 13:14:02;;;;;;;7.22;5.68;;;38.60;32.50;;;;;;5056724;28;20134;-14
2022/05/15 13:16:29;;;;;;;7.13;5.30;;;38.80;32.10;;;;;;5056389;28;20044;-14